createdAt,value
2019-05-15T00:01:48.899Z,93.87
2019-05-15T00:03:58.310Z,93.92
2019-05-15T00:06:04.064Z,94.28
2019-05-15T00:08:10.768Z,94.70
2019-05-15T00:10:18.467Z,94.79
2019-05-15T00:12:28.456Z,94.89
2019-05-15T00:14:36.002Z,95.29
2019-05-15T00:16:42.616Z,95.51
2019-05-15T00:18:49.413Z,95.84
2019-05-15T00:20:56.117Z,96.01
2019-05-15T00:23:02.832Z,96.30
2019-05-15T00:25:11.260Z,96.62
2019-05-15T00:27:20.027Z,96.76
2019-05-15T00:29:28.913Z,96.72
2019-05-15T00:31:35.456Z,96.50
2019-05-15T00:33:42.179Z,96.45
2019-05-15T00:35:50.233Z,96.72
2019-05-15T00:37:58.561Z,96.98
2019-05-15T00:40:08.862Z,96.99
2019-05-15T00:42:19.029Z,97.12
2019-05-15T00:44:25.297Z,97.27
2019-05-15T00:46:32.495Z,97.28
2019-05-15T00:48:40.506Z,97.45
2019-05-15T00:50:48.551Z,97.48
2019-05-15T00:52:56.451Z,97.62
2019-05-15T00:55:03.621Z,97.63
2019-05-15T00:57:10.028Z,97.56
2019-05-15T00:59:24.024Z,97.73
2019-05-15T01:01:28.501Z,97.83
2019-05-15T01:03:35.227Z,97.92
2019-05-15T01:05:41.934Z,97.93
2019-05-15T01:07:49.936Z,98.00
2019-05-15T01:09:59.597Z,98.13
2019-05-15T01:12:06.184Z,98.16
2019-05-15T01:14:13.016Z,98.26
2019-05-15T01:16:20.760Z,98.35
2019-05-15T01:18:29.217Z,98.17
2019-05-15T01:20:40.468Z,98.18
2019-05-15T01:22:48.621Z,98.38
2019-05-15T01:24:55.546Z,98.48
2019-05-15T01:27:02.454Z,98.50
2019-05-15T01:29:09.326Z,98.56
2019-05-15T01:31:19.179Z,98.65
2019-05-15T01:33:28.319Z,98.71
2019-05-15T01:35:39.586Z,98.79
2019-05-15T01:37:48.333Z,98.97
2019-05-15T01:39:58.002Z,98.97
2019-05-15T01:42:04.304Z,98.97
2019-05-15T01:44:11.416Z,99.05
2019-05-15T01:46:19.055Z,99.16
2019-05-15T01:48:28.295Z,99.22
2019-05-15T01:50:34.999Z,99.39
2019-05-15T01:52:42.386Z,99.45
2019-05-15T01:54:50.601Z,99.43
2019-05-15T01:56:59.114Z,99.49
2019-05-15T01:59:05.879Z,99.58
2019-05-15T02:01:14.880Z,99.67
2019-05-15T02:03:21.862Z,99.74
2019-05-15T02:05:28.784Z,99.69
2019-05-15T02:07:39.420Z,99.74
2019-05-15T02:09:49.222Z,99.79
2019-05-15T02:11:58.101Z,99.77
2019-05-15T02:14:04.367Z,99.75
2019-05-15T02:16:10.646Z,99.62
2019-05-15T02:18:19.191Z,99.61
2019-05-15T02:20:26.264Z,99.72
2019-05-15T02:22:34.221Z,99.83
2019-05-15T02:24:40.738Z,99.97
2019-05-15T02:26:50.597Z,99.90
2019-05-15T02:28:57.353Z,99.90
2019-05-15T02:31:04.138Z,99.79
2019-05-15T02:33:11.974Z,99.83
2019-05-15T02:35:21.251Z,99.88
2019-05-15T02:37:29.787Z,99.91
2019-05-15T02:39:38.850Z,99.88
2019-05-15T02:41:48.854Z,99.81
2019-05-15T02:43:54.383Z,99.75
2019-05-15T02:46:01.164Z,99.85
2019-05-15T02:48:09.119Z,99.91
2019-05-15T02:50:20.202Z,99.94
2019-05-15T02:52:24.538Z,99.98
2019-05-15T02:54:31.162Z,99.96
2019-05-15T02:56:39.225Z,100.00
2019-05-15T02:58:48.821Z,100.00
2019-05-15T03:00:54.939Z,100.00
2019-05-15T03:03:01.670Z,100.00
2019-05-15T03:05:09.487Z,100.00
2019-05-15T03:07:19.302Z,100.00
2019-05-15T03:09:29.462Z,100.00
2019-05-15T03:11:35.578Z,100.00
2019-05-15T03:13:42.218Z,100.00
2019-05-15T03:15:49.267Z,100.00
2019-05-15T03:17:56.014Z,100.00
2019-05-15T03:20:02.832Z,100.00
2019-05-15T03:22:10.403Z,100.00
2019-05-15T03:24:19.452Z,100.00
2019-05-15T03:26:25.851Z,99.94
2019-05-15T03:28:32.563Z,100.00
2019-05-15T03:31:12.331Z,100.00
2019-05-15T03:33:00.532Z,100.00
2019-05-15T03:35:05.066Z,99.94
2019-05-15T03:37:12.025Z,99.90
2019-05-15T03:39:19.414Z,99.83
2019-05-15T03:41:29.616Z,99.73
2019-05-15T03:43:34.994Z,99.92
2019-05-15T03:45:41.451Z,99.96
2019-05-15T03:47:49.107Z,99.86
2019-05-15T03:49:56.109Z,99.85
2019-05-15T03:52:02.694Z,100.00
2019-05-15T03:54:09.802Z,100.00
2019-05-15T03:56:19.039Z,100.00
2019-05-15T03:58:24.883Z,100.00
2019-05-15T04:00:31.549Z,100.00
2019-05-15T04:02:39.965Z,100.00
2019-05-15T04:04:50.186Z,100.00
2019-05-15T04:06:55.621Z,100.00
2019-05-15T04:09:05.175Z,99.95
2019-05-15T04:11:16.011Z,99.87
2019-05-15T04:13:22.674Z,99.76
2019-05-15T04:15:30.285Z,99.50
2019-05-15T04:17:40.702Z,99.56
2019-05-15T04:19:49.701Z,99.47
2019-05-15T04:21:55.989Z,99.33
2019-05-15T04:24:03.911Z,99.25
2019-05-15T04:26:12.599Z,99.17
2019-05-15T04:28:22.120Z,99.29
2019-05-15T04:30:30.804Z,99.29
2019-05-15T04:32:39.887Z,99.18
2019-05-15T04:34:48.785Z,98.98
2019-05-15T04:36:58.564Z,98.44
2019-05-15T04:39:09.550Z,98.46
2019-05-15T04:41:14.815Z,98.61
2019-05-15T04:43:21.638Z,98.68
2019-05-15T04:45:34.430Z,98.81
2019-05-15T04:47:39.571Z,99.00
2019-05-15T04:49:45.735Z,99.20
2019-05-15T04:51:52.663Z,99.32
2019-05-15T04:53:59.434Z,99.12
2019-05-15T04:56:09.192Z,98.97
2019-05-15T04:58:14.526Z,99.03
2019-05-15T05:00:39.999Z,98.95
2019-05-15T05:02:45.915Z,98.93
2019-05-15T05:04:52.674Z,99.17
2019-05-15T05:07:00.261Z,99.30
2019-05-15T05:09:09.286Z,99.00
2019-05-15T05:11:16.174Z,98.64
2019-05-15T05:13:24.195Z,98.37
2019-05-15T05:15:31.069Z,97.76
2019-05-15T05:17:39.287Z,97.83
2019-05-15T05:19:47.863Z,97.71
2019-05-15T05:21:55.747Z,97.67
2019-05-15T05:24:03.937Z,97.71
2019-05-15T05:26:12.221Z,97.71
2019-05-15T05:28:18.991Z,97.04
2019-05-15T05:30:29.247Z,96.53
2019-05-15T05:32:38.771Z,96.36
2019-05-15T05:34:45.551Z,96.71
2019-05-15T05:36:52.395Z,96.87
2019-05-15T05:38:59.124Z,97.06
2019-05-15T05:41:08.135Z,97.04
2019-05-15T05:43:18.406Z,96.68
2019-05-15T05:45:25.303Z,96.45
2019-05-15T05:47:31.877Z,96.51
2019-05-15T05:49:38.749Z,96.49
2019-05-15T05:51:47.949Z,96.54
2019-05-15T05:53:54.219Z,96.69
2019-05-15T05:56:00.829Z,96.91
2019-05-15T05:58:08.234Z,96.88
2019-05-15T06:00:18.185Z,96.87
2019-05-15T06:02:27.874Z,96.42
2019-05-15T06:04:33.959Z,95.63
2019-05-15T06:06:41.994Z,95.63
2019-05-15T06:08:48.905Z,96.10
2019-05-15T06:10:55.398Z,96.08
2019-05-15T06:13:02.660Z,94.62
2019-05-15T06:15:10.534Z,95.35
2019-05-15T06:17:19.027Z,94.86
2019-05-15T06:19:27.792Z,95.49
2019-05-15T06:21:39.236Z,95.71
2019-05-15T06:23:48.518Z,95.67
2019-05-15T06:25:54.406Z,95.66
2019-05-15T06:28:01.291Z,95.98
2019-05-15T06:30:13.181Z,95.76
2019-05-15T06:32:19.411Z,95.01
2019-05-15T06:34:25.420Z,95.73
2019-05-15T06:36:34.038Z,95.11
2019-05-15T06:38:40.756Z,95.34
2019-05-15T06:40:48.607Z,95.31
2019-05-15T06:42:55.894Z,94.45
2019-05-15T06:45:05.034Z,95.34
2019-05-15T06:47:11.513Z,94.96
2019-05-15T06:49:19.394Z,94.86
2019-05-15T06:51:28.629Z,93.70
2019-05-15T06:53:34.755Z,94.30
2019-05-15T06:55:41.559Z,93.95
2019-05-15T06:57:48.534Z,92.39
2019-05-15T06:59:57.759Z,92.68
2019-05-15T07:02:04.109Z,93.00
2019-05-15T07:04:10.612Z,92.44
2019-05-15T07:06:18.294Z,91.61
2019-05-15T07:08:24.899Z,90.61
2019-05-15T07:10:32.724Z,90.47
2019-05-15T07:12:39.776Z,89.17
2019-05-15T07:14:48.592Z,88.53
2019-05-15T07:16:55.262Z,87.21
2019-05-15T07:19:02.081Z,86.51
2019-05-15T07:21:10.393Z,86.95
2019-05-15T07:23:18.576Z,86.38
2019-05-15T07:25:29.345Z,85.26
2019-05-15T07:27:38.991Z,85.48
2019-05-15T07:29:48.801Z,84.54
2019-05-15T07:31:58.601Z,85.79
2019-05-15T07:34:08.161Z,84.61
2019-05-15T07:36:14.177Z,84.89
2019-05-15T07:38:21.111Z,84.37
2019-05-15T07:40:30.945Z,83.64
2019-05-15T07:42:38.684Z,83.90
2019-05-15T07:44:48.200Z,83.91
2019-05-15T07:46:55.138Z,83.90
2019-05-15T07:49:03.758Z,83.55
2019-05-15T07:51:11.424Z,83.00
2019-05-15T07:53:20.303Z,82.99
2019-05-15T07:55:34.169Z,82.38
2019-05-15T07:57:43.942Z,81.73
2019-05-15T07:59:51.728Z,81.62
2019-05-15T08:01:59.624Z,81.68
2019-05-15T08:04:22.684Z,81.17
2019-05-15T08:06:18.002Z,81.01
2019-05-15T08:08:25.150Z,81.36
2019-05-15T08:10:31.936Z,80.52
2019-05-15T08:12:39.159Z,80.51
2019-05-15T08:14:48.358Z,79.46
2019-05-15T08:16:54.842Z,80.19
2019-05-15T08:19:02.985Z,80.30
2019-05-15T08:21:11.189Z,80.33
2019-05-15T08:23:19.302Z,79.81
2019-05-15T08:26:05.672Z,79.60
2019-05-15T08:27:38.287Z,79.17
2019-05-15T08:29:45.826Z,78.78
2019-05-15T08:31:52.699Z,79.15
2019-05-15T08:34:12.810Z,78.79
2019-05-15T08:36:08.602Z,78.48
2019-05-15T08:38:17.970Z,78.15
2019-05-15T08:40:24.386Z,77.62
2019-05-15T08:42:32.293Z,77.23
2019-05-15T08:44:39.561Z,77.56
2019-05-15T08:46:48.234Z,77.57
2019-05-15T08:48:54.852Z,77.63
2019-05-15T08:51:01.756Z,77.67
2019-05-15T08:53:10.837Z,77.71
2019-05-15T08:55:20.017Z,77.61
2019-05-15T08:57:28.837Z,77.87
2019-05-15T08:59:34.697Z,77.71
2019-05-15T09:01:41.427Z,76.86
2019-05-15T09:03:48.926Z,76.98
2019-05-15T09:05:58.786Z,76.49
2019-05-15T09:08:04.555Z,77.00
2019-05-15T09:10:12.868Z,77.35
2019-05-15T09:12:19.960Z,77.14
2019-05-15T09:14:28.490Z,76.72
2019-05-15T09:16:38.732Z,76.77
2019-05-15T09:18:48.339Z,76.44
2019-05-15T09:20:55.942Z,76.09
2019-05-15T09:23:02.538Z,76.04
2019-05-15T09:25:13.248Z,76.26
2019-05-15T09:27:19.892Z,76.42
2019-05-15T09:29:28.513Z,76.30
2019-05-15T09:31:35.391Z,76.20
2019-05-15T09:33:42.329Z,76.62
2019-05-15T09:35:49.309Z,75.86
2019-05-15T09:37:58.181Z,75.96
2019-05-15T09:40:08.885Z,75.89
2019-05-15T09:42:17.955Z,76.10
2019-05-15T09:44:28.232Z,75.94
2019-05-15T09:46:34.585Z,75.66
2019-05-15T09:48:41.338Z,75.22
2019-05-15T09:50:49.916Z,75.32
2019-05-15T09:52:58.843Z,75.20
2019-05-15T09:55:08.618Z,75.12
2019-05-15T09:57:18.751Z,74.35
2019-05-15T09:59:27.988Z,74.24
2019-05-15T10:01:34.053Z,74.21
2019-05-15T10:03:44.382Z,74.77
2019-05-15T10:05:49.376Z,74.77
2019-05-15T10:07:57.608Z,74.42
2019-05-15T10:10:08.506Z,74.98
2019-05-15T10:12:14.382Z,75.12
2019-05-15T10:14:21.145Z,74.91
2019-05-15T10:16:28.656Z,74.52
2019-05-15T10:18:35.383Z,74.68
2019-05-15T10:20:42.492Z,74.69
2019-05-15T10:22:49.550Z,74.80
2019-05-15T10:24:58.576Z,74.85
2019-05-15T10:27:08.787Z,74.72
2019-05-15T10:29:15.260Z,74.82
2019-05-15T10:31:22.234Z,74.94
2019-05-15T10:33:29.559Z,74.58
2019-05-15T10:35:39.139Z,74.25
2019-05-15T10:37:48.513Z,74.08
2019-05-15T10:39:54.237Z,74.13
2019-05-15T10:42:01.270Z,74.37
2019-05-15T10:44:09.171Z,73.96
2019-05-15T10:46:19.053Z,73.76
2019-05-15T10:48:29.456Z,73.66
2019-05-15T10:50:38.892Z,73.19
2019-05-15T10:52:45.687Z,72.99
2019-05-15T10:54:53.068Z,73.28
2019-05-15T10:57:00.906Z,73.87
2019-05-15T10:59:08.617Z,74.27
2019-05-15T11:01:15.242Z,74.87
2019-05-15T11:03:22.105Z,74.50
2019-05-15T11:05:41.158Z,74.27
2019-05-15T11:07:39.613Z,74.11
2019-05-15T11:09:48.916Z,74.11
2019-05-15T11:11:55.084Z,73.76
2019-05-15T11:14:01.798Z,72.85
2019-05-15T11:16:08.661Z,72.69
2019-05-15T11:18:15.482Z,72.13
2019-05-15T11:20:23.500Z,71.44
2019-05-15T11:22:30.144Z,71.00
2019-05-15T11:24:38.520Z,71.28
2019-05-15T11:26:45.457Z,70.62
2019-05-15T11:28:52.224Z,69.92
2019-05-15T11:30:59.793Z,69.30
2019-05-15T11:33:06.314Z,68.84
2019-05-15T11:35:13.783Z,69.11
2019-05-15T11:37:20.478Z,69.58
2019-05-15T11:39:28.780Z,70.07
2019-05-15T11:41:38.780Z,69.63
2019-05-15T11:43:46.092Z,69.08
2019-05-15T11:45:52.988Z,68.08
2019-05-15T11:48:01.019Z,68.18
2019-05-15T11:50:08.682Z,68.08
2019-05-15T11:52:18.772Z,68.20
2019-05-15T11:54:28.275Z,68.02
2019-05-15T11:56:35.612Z,68.33
2019-05-15T11:58:44.168Z,68.43
2019-05-15T12:00:50.923Z,68.77
2019-05-15T12:03:01.424Z,67.95
2019-05-15T12:05:09.785Z,67.63
2019-05-15T12:07:18.238Z,67.25
2019-05-15T12:09:28.062Z,66.29
2019-05-15T12:11:37.376Z,65.60
2019-05-15T12:13:42.682Z,65.46
2019-05-15T12:15:49.398Z,65.12
2019-05-15T12:17:56.134Z,65.60
2019-05-15T12:20:06.435Z,66.25
2019-05-15T12:22:11.584Z,65.90
2019-05-15T12:24:20.022Z,65.98
2019-05-15T12:26:29.149Z,66.26
2019-05-15T12:28:40.236Z,66.38
2019-05-15T12:30:50.026Z,66.62
2019-05-15T12:33:00.309Z,66.26
2019-05-15T12:35:06.730Z,65.67
2019-05-15T12:37:13.866Z,65.74
2019-05-15T12:39:22.245Z,63.74
2019-05-15T13:00:53.049Z,60.55
2019-05-15T13:03:00.149Z,61.87
2019-05-15T13:07:25.748Z,62.00
2019-05-15T13:09:33.448Z,62.51
2019-05-15T13:11:40.125Z,62.40
2019-05-15T13:13:48.464Z,63.19
2019-05-15T13:15:55.048Z,62.65
2019-05-15T13:18:02.261Z,63.42
2019-05-15T13:20:10.213Z,63.26
2019-05-15T13:22:19.486Z,63.13
2019-05-15T13:24:25.149Z,62.44
2019-05-15T13:26:33.141Z,61.82
2019-05-15T13:28:40.615Z,62.73
2019-05-15T13:30:49.018Z,62.86
2019-05-15T13:33:01.071Z,62.91
2019-05-15T13:35:09.820Z,63.06
2019-05-15T13:37:26.742Z,63.33
2019-05-15T13:39:28.221Z,63.31
2019-05-15T13:41:34.162Z,63.87
2019-05-15T13:43:41.166Z,64.75
2019-05-15T13:45:49.442Z,67.06
2019-05-15T13:47:56.337Z,69.20
2019-05-15T13:50:03.291Z,70.34
2019-05-15T13:52:09.936Z,74.01
2019-05-15T13:54:18.726Z,76.44
2019-05-15T13:56:25.438Z,78.35
2019-05-15T13:58:33.430Z,80.47
2019-05-15T14:00:40.535Z,80.96
2019-05-15T14:02:48.064Z,82.40
2019-05-15T14:04:54.542Z,83.34
2019-05-15T14:07:02.422Z,84.15
2019-05-15T14:09:09.723Z,84.76
2019-05-15T14:11:21.864Z,85.80
2019-05-15T14:13:28.753Z,86.92
2019-05-15T14:15:38.022Z,87.19
2019-05-15T14:17:44.547Z,87.15
2019-05-15T14:19:51.729Z,87.56
2019-05-15T14:21:58.766Z,88.72
2019-05-15T14:24:05.541Z,88.97
2019-05-15T14:26:22.334Z,89.54
2019-05-15T14:28:21.753Z,89.97
2019-05-15T14:30:29.326Z,91.28
2019-05-15T14:32:39.185Z,90.49
2019-05-15T14:34:50.887Z,90.95
2019-05-15T14:36:58.693Z,89.97
2019-05-15T14:39:08.069Z,91.55
2019-05-15T14:41:15.277Z,91.59
2019-05-15T14:43:22.534Z,91.72
2019-05-15T14:45:29.238Z,91.96
2019-05-15T14:47:38.036Z,92.93
2019-05-15T14:49:45.776Z,93.56
2019-05-15T14:52:04.601Z,93.53
2019-05-15T14:54:02.936Z,94.10
2019-05-15T14:56:09.879Z,94.86
2019-05-15T14:58:19.984Z,95.01
2019-05-15T15:00:30.219Z,95.62
2019-05-15T15:02:34.901Z,95.61
2019-05-15T15:04:43.716Z,95.20
2019-05-15T15:06:51.064Z,95.54
2019-05-15T15:08:59.258Z,95.51
2019-05-15T15:11:09.303Z,95.93
2019-05-15T15:13:17.935Z,95.96
2019-05-15T15:15:25.172Z,96.04
2019-05-15T15:17:33.454Z,96.60
2019-05-15T15:19:40.354Z,96.73
2019-05-15T15:21:48.672Z,97.20
2019-05-15T15:23:55.351Z,97.37
2019-05-15T15:26:05.241Z,97.42
2019-05-15T15:28:12.151Z,97.85
2019-05-15T15:30:20.963Z,98.27
2019-05-15T15:32:29.133Z,98.51
2019-05-15T15:34:38.604Z,98.81
2019-05-15T15:36:45.130Z,98.83
2019-05-15T15:38:52.149Z,98.82
2019-05-15T15:41:00.817Z,98.92
2019-05-15T15:43:08.784Z,98.71
2019-05-15T15:45:19.312Z,98.79
2019-05-15T15:47:28.180Z,98.90
2019-05-15T15:49:34.865Z,98.95
2019-05-15T15:51:41.587Z,99.02
2019-05-15T15:53:49.861Z,99.11
2019-05-15T15:55:56.669Z,99.29
2019-05-15T15:58:03.889Z,99.17
2019-05-15T16:00:12.009Z,99.29
2019-05-15T16:02:18.997Z,99.42
2019-05-15T16:04:28.077Z,99.50
2019-05-15T16:06:38.738Z,99.42
2019-05-15T16:08:53.119Z,99.65
2019-05-15T16:10:54.488Z,100.00
2019-05-15T16:13:01.020Z,100.00
2019-05-15T16:15:09.740Z,100.00
2019-05-15T16:17:18.234Z,100.00
2019-05-15T16:19:28.190Z,100.00
2019-05-15T16:21:33.909Z,100.00
2019-05-15T16:23:41.960Z,100.00
2019-05-15T16:25:49.030Z,100.00
2019-05-15T16:27:57.808Z,100.00
2019-05-15T16:30:08.224Z,100.00
2019-05-15T16:32:19.174Z,100.00
2019-05-15T16:34:24.361Z,100.00
2019-05-15T16:36:32.103Z,100.00
2019-05-15T16:38:39.074Z,100.00
2019-05-15T16:40:48.723Z,100.00
2019-05-15T16:42:55.120Z,100.00
2019-05-15T16:45:01.860Z,100.00
2019-05-15T16:47:09.026Z,100.00
2019-05-15T16:49:19.123Z,100.00
2019-05-15T16:51:25.407Z,100.00
2019-05-15T16:53:34.103Z,100.00
2019-05-15T16:55:41.310Z,100.00
2019-05-15T16:57:48.612Z,100.00
2019-05-15T16:59:58.480Z,100.00
2019-05-15T17:02:08.938Z,100.00
2019-05-15T17:04:18.016Z,100.00
2019-05-15T17:06:24.272Z,100.00
2019-05-15T17:08:32.227Z,100.00
2019-05-15T17:10:40.755Z,100.00
2019-05-15T17:12:49.201Z,100.00
2019-05-15T17:14:58.194Z,100.00
2019-05-15T17:17:07.829Z,100.00
2019-05-15T17:19:13.828Z,100.00
2019-05-15T17:21:21.871Z,100.00
2019-05-15T17:23:29.125Z,100.00
2019-05-15T17:25:38.159Z,100.00
2019-05-15T17:27:44.556Z,100.00
2019-05-15T17:29:51.486Z,100.00
2019-05-15T17:31:58.470Z,100.00
2019-05-15T17:34:05.160Z,100.00
2019-05-15T17:36:11.659Z,100.00
2019-05-15T17:38:18.545Z,100.00
2019-05-15T17:40:25.762Z,100.00
2019-05-15T17:42:32.544Z,100.00
2019-05-15T17:44:39.328Z,100.00
2019-05-15T17:46:48.750Z,100.00
2019-05-15T17:48:56.791Z,100.00
2019-05-15T17:51:05.153Z,100.00
2019-05-15T17:53:12.002Z,100.00
2019-05-15T17:55:18.875Z,100.00
2019-05-15T17:57:28.605Z,100.00
2019-05-15T17:59:37.833Z,100.00
2019-05-15T18:01:43.883Z,100.00
2019-05-15T18:03:51.919Z,100.00
2019-05-15T18:05:59.365Z,100.00
2019-05-15T18:08:08.661Z,100.00
2019-05-15T18:10:16.077Z,100.00
2019-05-15T18:12:22.911Z,100.00
2019-05-15T18:14:30.241Z,100.00
2019-05-15T18:16:38.132Z,100.00
2019-05-15T18:19:08.066Z,100.00
2019-05-15T18:21:35.074Z,100.00
2019-05-15T18:23:42.216Z,100.00
2019-05-15T18:25:49.291Z,100.00
2019-05-15T18:27:58.832Z,100.00
2019-05-15T18:30:09.235Z,100.00
2019-05-15T18:32:18.763Z,100.00
2019-05-15T18:34:25.597Z,100.00
2019-05-15T18:36:32.999Z,100.00
2019-05-15T18:38:39.948Z,100.00
2019-05-15T18:40:48.705Z,100.00
2019-05-15T18:42:55.678Z,100.00
2019-05-15T18:45:03.577Z,100.00
2019-05-15T18:47:11.229Z,100.00
2019-05-15T18:49:18.542Z,100.00
2019-05-15T18:51:28.004Z,100.00
2019-05-15T18:53:35.447Z,100.00
2019-05-15T18:55:44.871Z,100.00
2019-05-15T18:57:51.981Z,100.00
2019-05-15T18:59:59.295Z,100.00
2019-05-15T19:02:08.015Z,100.00
2019-05-15T19:04:15.362Z,100.00
2019-05-15T19:06:23.628Z,100.00
2019-05-15T19:08:30.736Z,100.00
2019-05-15T19:10:38.710Z,100.00
2019-05-15T19:12:48.456Z,100.00
2019-05-15T19:14:58.422Z,100.00
2019-05-15T19:17:08.215Z,100.00
2019-05-15T19:19:15.835Z,100.00
2019-05-15T19:21:22.880Z,100.00
2019-05-15T19:23:29.830Z,100.00
2019-05-15T19:25:36.717Z,100.00
2019-05-15T19:27:44.000Z,100.00
2019-05-15T19:29:51.010Z,100.00
2019-05-15T19:31:58.029Z,100.00
2019-05-15T19:34:05.345Z,100.00
2019-05-15T19:36:12.513Z,100.00
2019-05-15T19:38:20.177Z,100.00
2019-05-15T19:40:28.472Z,100.00
2019-05-15T19:42:38.079Z,100.00
2019-05-15T19:44:44.211Z,100.00
2019-05-15T19:46:51.212Z,100.00
2019-05-15T19:48:58.823Z,100.00
2019-05-15T19:51:05.854Z,100.00
2019-05-15T19:53:13.555Z,100.00
2019-05-15T19:55:21.122Z,100.00
2019-05-15T19:57:30.535Z,100.00
2019-05-15T19:59:38.184Z,100.00
2019-05-15T20:01:48.583Z,100.00
2019-05-15T20:03:55.823Z,100.00
2019-05-15T20:06:02.977Z,100.00
2019-05-15T20:08:10.171Z,100.00
2019-05-15T20:10:18.704Z,100.00
2019-05-15T20:12:27.773Z,100.00
2019-05-15T20:14:34.105Z,100.00
2019-05-15T20:16:42.897Z,100.00
2019-05-15T20:18:51.358Z,100.00
2019-05-15T20:20:58.604Z,100.00
2019-05-15T20:23:08.337Z,100.00
2019-05-15T20:25:14.587Z,100.00
2019-05-15T20:27:21.229Z,100.00
2019-05-15T20:29:29.408Z,100.00
2019-05-15T20:31:38.373Z,100.00
2019-05-15T20:33:48.225Z,100.00
2019-05-15T20:35:54.970Z,100.00
2019-05-15T20:38:03.435Z,100.00
2019-05-15T20:40:11.937Z,100.00
2019-05-15T20:42:18.699Z,100.00
2019-05-15T20:44:25.847Z,100.00
2019-05-15T20:46:34.043Z,100.00
2019-05-15T20:48:41.114Z,100.00
2019-05-15T20:50:48.385Z,100.00
2019-05-15T20:52:55.265Z,100.00
2019-05-15T20:55:02.121Z,100.00
2019-05-15T20:57:10.280Z,100.00
2019-05-15T20:59:18.208Z,100.00
2019-05-15T21:01:28.575Z,100.00
2019-05-15T21:03:34.865Z,100.00
2019-05-15T21:05:41.702Z,100.00
2019-05-15T21:07:49.076Z,100.00
2019-05-15T21:09:58.685Z,100.00
2019-05-15T21:12:09.796Z,100.00
2019-05-15T21:14:18.253Z,100.00
2019-05-15T21:16:24.872Z,100.00
2019-05-15T21:18:31.554Z,100.00
2019-05-15T21:20:39.789Z,100.00
2019-05-15T21:22:49.047Z,100.00
2019-05-15T21:24:56.803Z,100.00
2019-05-15T21:27:03.513Z,100.00
2019-05-15T21:29:10.203Z,100.00
2019-05-15T21:31:21.294Z,100.00
2019-05-15T21:33:26.662Z,100.00
2019-05-15T21:35:34.194Z,100.00
2019-05-15T21:37:40.873Z,100.00
2019-05-15T21:39:48.570Z,100.00
2019-05-15T21:41:55.241Z,100.00
2019-05-15T21:44:03.415Z,100.00
2019-05-15T21:46:13.353Z,100.00
2019-05-15T21:48:20.045Z,100.00
2019-05-15T21:50:28.315Z,100.00
2019-05-15T21:52:38.372Z,100.00
2019-05-15T21:54:44.482Z,100.00
2019-05-15T21:56:51.466Z,100.00
2019-05-15T21:59:01.015Z,100.00
2019-05-15T22:01:10.903Z,100.00
2019-05-15T22:03:20.414Z,100.00
2019-05-15T22:05:29.133Z,100.00
2019-05-15T22:07:36.116Z,100.00
2019-05-15T22:09:42.710Z,100.00
2019-05-15T22:11:49.938Z,100.00
2019-05-15T22:13:58.550Z,100.00
2019-05-15T22:16:08.019Z,100.00
2019-05-15T22:18:15.219Z,100.00
2019-05-15T22:20:22.149Z,100.00
2019-05-15T22:22:28.879Z,100.00
2019-05-15T22:24:37.766Z,100.00
2019-05-15T22:26:44.442Z,100.00
2019-05-15T22:28:52.820Z,100.00
2019-05-15T22:31:02.706Z,100.00
2019-05-15T22:33:10.709Z,100.00
2019-05-15T22:35:18.718Z,100.00
2019-05-15T22:37:25.819Z,100.00
2019-05-15T22:39:32.482Z,100.00
2019-05-15T22:41:40.306Z,100.00
2019-05-15T22:43:48.549Z,100.00
2019-05-15T22:45:58.873Z,100.00
2019-05-15T22:48:07.159Z,100.00
2019-05-15T22:50:18.336Z,100.00
2019-05-15T22:52:27.837Z,100.00
2019-05-15T22:54:34.229Z,100.00
2019-05-15T22:56:40.892Z,100.00
2019-05-15T22:58:48.025Z,100.00
2019-05-15T23:00:59.767Z,100.00
2019-05-15T23:03:08.234Z,100.00
2019-05-15T23:05:25.254Z,100.00
2019-05-15T23:07:23.902Z,100.00
2019-05-15T23:09:30.550Z,100.00
2019-05-15T23:11:39.295Z,100.00
2019-05-15T23:13:48.431Z,100.00
2019-05-15T23:15:58.421Z,100.00
2019-05-15T23:18:08.605Z,100.00
2019-05-15T23:20:17.657Z,100.00
2019-05-15T23:24:38.868Z,100.00
2019-05-15T23:26:47.656Z,100.00
2019-05-15T23:28:53.639Z,100.00
2019-05-15T23:31:00.425Z,100.00
2019-05-15T23:33:08.572Z,100.00
2019-05-15T23:35:17.559Z,100.00
2019-05-15T23:37:25.149Z,100.00
2019-05-15T23:39:31.798Z,100.00
2019-05-15T23:41:38.582Z,100.00
2019-05-15T23:43:48.074Z,100.00
2019-05-15T23:45:54.510Z,100.00
2019-05-15T23:48:01.159Z,100.00
2019-05-15T23:50:08.249Z,100.00
2019-05-15T23:52:17.819Z,100.00
2019-05-15T23:54:28.472Z,100.00
2019-05-15T23:56:38.826Z,100.00
2019-05-15T23:58:45.585Z,100.00
